^^
Grace C. Lehan Memorial Weather Station Historical Data
Daily Summary for May 21, 2022 Units:  Metric    English   Both
Daily Weekly Monthly Yearly
  High: Low: Average:
Temperature: 24.7 °C 14.7 °C 18.1 °C
Dew Point: 17.8 °C 13.1 °C 14.8 °C
Humidity: 92% 62.8% 82%
Wind Speed: 2.9km/h 0km/h 0.3km/h
Wind Gust: 14.5km/h - -
Wind- - WNW
Pressure: 1013.8 hPa 1008.7 hPa -
Precipitation: 0 mm    
 
 
Tabular Data for May 21, 2022
Time Temperature Dew Point Pressure Wind Wind Speed Wind Gust Humidity Rainfall Rate (Hourly) solar
00:00 17.4 °C 15.8 °C 1011.7 hPa Calm   6.4 km/h 90% 0 mm 0 W/m2
00:09 17.3 °C 15.7 °C 1011.7 hPa Calm   1.6 km/h 90% 0 mm 0 W/m2
00:14 17.3 °C 15.6 °C 1011.7 hPa WNW 0.5 km/h 4.8 km/h 90% 0 mm 0 W/m2
00:19 17.2 °C 15.6 °C 1011.7 hPa WNW 1.6 km/h 9.7 km/h 90% 0 mm 0 W/m2
00:24 17.2 °C 15.5 °C 1011.7 hPa WNW 0.3 km/h 9.7 km/h 90% 0 mm 0 W/m2
00:29 17.1 °C 15.4 °C 1011.7 hPa WNW 0.5 km/h 9.7 km/h 90% 0 mm 0 W/m2
00:34 17 °C 15.4 °C 1011.7 hPa WNW 0.5 km/h 9.7 km/h 90.7% 0 mm 0 W/m2
00:39 16.9 °C 15.3 °C 1011.7 hPa NW 0.5 km/h 8 km/h 90.1% 0 mm 0 W/m2
00:44 16.9 °C 15.3 °C 1011.7 hPa NW 0.8 km/h 8 km/h 90% 0 mm 0 W/m2
00:49 16.9 °C 15.2 °C 1011.7 hPa NW 0.3 km/h 8 km/h 90% 0 mm 0 W/m2
00:54 16.8 °C 15.3 °C 1011.7 hPa WNW 0.5 km/h 8 km/h 90.7% 0 mm 0 W/m2
00:59 16.8 °C 15.3 °C 1011.7 hPa Calm   8 km/h 91% 0 mm 0 W/m2
01:04 16.8 °C 15.3 °C 1011.7 hPa NW 0.8 km/h 8 km/h 91% 0 mm 0 W/m2
01:09 16.8 °C 15.3 °C 1011.7 hPa WNW 0.2 km/h 8 km/h 91% 0 mm 0 W/m2
01:14 16.7 °C 15.3 °C 1011.7 hPa WNW 0.5 km/h 8 km/h 91% 0 mm 0 W/m2
01:19 16.7 °C 15.3 °C 1011.7 hPa Calm   8 km/h 91% 0 mm 0 W/m2
01:24 16.7 °C 15.3 °C 1011.7 hPa NW 1.1 km/h 9.7 km/h 91% 0 mm 0 W/m2
01:25 16.7 °C 15.3 °C 1011.7 hPa Calm   9.7 km/h 91% 0 mm 0 W/m2
01:30 16.7 °C 15.2 °C 1011.7 hPa Calm   9.7 km/h 91% 0 mm 0 W/m2
02:30 16.2 °C 14.8 °C 1012.1 hPa Calm   4.8 km/h 91% 0 mm 0 W/m2
03:00 16.1 °C 14.6 °C 1012.1 hPa Calm     91% 0 mm 0 W/m2
03:30 16.3 °C 15 °C 1012.1 hPa Calm   3.2 km/h 92% 0 mm 0 W/m2
04:04 16.1 °C 14.6 °C 1012.1 hPa NW 1.4 km/h 6.4 km/h 91% 0 mm 0 W/m2
04:09 16.1 °C 14.6 °C 1012.1 hPa Calm   6.4 km/h 91% 0 mm 0 W/m2
04:14 16 °C 14.6 °C 1012.1 hPa Calm   6.4 km/h 91% 0 mm 0 W/m2
04:19 15.9 °C 14.5 °C 1012.1 hPa Calm   6.4 km/h 91% 0 mm 0 W/m2
04:24 15.9 °C 14.4 °C 1012.1 hPa Calm   6.4 km/h 91% 0 mm 0 W/m2
04:29 15.8 °C 14.4 °C 1012.1 hPa Calm   6.4 km/h 91% 0 mm 0 W/m2
04:34 15.8 °C 14.3 °C 1012.1 hPa Calm   6.4 km/h 91% 0 mm 0 W/m2
04:39 15.8 °C 14.3 °C 1012.1 hPa NW 0.2 km/h 4.8 km/h 91% 0 mm 0 W/m2
04:44 15.7 °C 14.1 °C 1012.1 hPa Calm   4.8 km/h 90.1% 0 mm 0 W/m2
04:49 15.7 °C 14.1 °C 1012.1 hPa NW 0.3 km/h 6.4 km/h 90% 0 mm 0 W/m2
04:54 15.7 °C 14.1 °C 1012.1 hPa Calm   6.4 km/h 90% 0 mm 0 W/m2
04:59 15.7 °C 14.1 °C 1012.1 hPa Calm   6.4 km/h 90% 0 mm 0 W/m2
05:04 15.6 °C 14 °C 1012.1 hPa Calm   6.4 km/h 90% 0 mm 0 W/m2
05:09 15.6 °C 13.8 °C 1012.1 hPa Calm   1.6 km/h 89.1% 0 mm 0 W/m2
05:14 15.6 °C 13.8 °C 1012.4 hPa NW 0.2 km/h 4.8 km/h 89% 0 mm 0 W/m2
05:19 15.7 °C 13.9 °C 1012.4 hPa Calm   4.8 km/h 89% 0 mm 0 W/m2
05:24 15.7 °C 13.9 °C 1012.4 hPa Calm   4.8 km/h 89% 0 mm 0 W/m2
05:29 15.7 °C 13.9 °C 1012.4 hPa Calm   4.8 km/h 89% 0 mm 0 W/m2
05:34 15.7 °C 13.8 °C 1012.4 hPa NW 0.2 km/h 4.8 km/h 88.3% 0 mm 0 W/m2
05:39 15.7 °C 13.7 °C 1012.4 hPa Calm   3.2 km/h 88% 0 mm 0 W/m2
05:44 15.8 °C 13.8 °C 1012.4 hPa Calm   3.2 km/h 88% 0 mm 0 W/m2
05:49 15.8 °C 13.8 °C 1012.4 hPa Calm   3.2 km/h 88% 0 mm 0 W/m2
05:54 15.7 °C 13.7 °C 1012.4 hPa Calm   3.2 km/h 88% 0 mm 0 W/m2
05:59 15.7 °C 13.7 °C 1012.4 hPa Calm   3.2 km/h 88% 0 mm 0 W/m2
06:04 15.7 °C 13.7 °C 1012.8 hPa Calm   3.2 km/h 88% 0 mm 0 W/m2
06:09 15.6 °C 13.6 °C 1012.8 hPa Calm     88% 0 mm 0 W/m2
06:14 15.5 °C 13.5 °C 1012.4 hPa Calm     88% 0 mm 0 W/m2
06:19 15.4 °C 13.4 °C 1012.8 hPa Calm     88% 0 mm 0 W/m2
06:24 15.3 °C 13.3 °C 1012.8 hPa Calm     88% 0 mm 0 W/m2
06:29 15.3 °C 13.4 °C 1012.8 hPa Calm     88.4% 0 mm 0 W/m2
06:34 15.2 °C 13.3 °C 1012.8 hPa Calm     88.3% 0 mm 0 W/m2
06:39 15.1 °C 13.2 °C 1012.8 hPa Calm     88.5% 0 mm 0 W/m2
06:44 15 °C 13.2 °C 1012.8 hPa Calm     89% 0 mm 5 W/m2
06:49 14.9 °C 13.2 °C 1012.8 hPa Calm     89% 0 mm 7 W/m2
06:54 14.8 °C 13.2 °C 1013.1 hPa Calm     89.6% 0 mm 9 W/m2
06:59 14.8 °C 13.2 °C 1013.1 hPa Calm     90% 0 mm 9 W/m2
07:04 14.7 °C 13.1 °C 1013.1 hPa Calm     90% 0 mm 11 W/m2
07:09 14.7 °C 13.1 °C 1013.1 hPa Calm     90.2% 0 mm 12 W/m2
07:14 14.7 °C 13.2 °C 1013.1 hPa Calm     91% 0 mm 12 W/m2
07:19 14.7 °C 13.2 °C 1013.1 hPa Calm     91% 0 mm 14 W/m2
07:24 14.7 °C 13.2 °C 1013.1 hPa Calm     91% 0 mm 16 W/m2
07:29 14.7 °C 13.3 °C 1013.4 hPa Calm     91.7% 0 mm 16 W/m2
07:34 14.7 °C 13.4 °C 1013.4 hPa Calm     92% 0 mm 18 W/m2
07:39 14.8 °C 13.5 °C 1013.4 hPa Calm     92% 0 mm 18 W/m2
07:44 14.8 °C 13.5 °C 1013.4 hPa Calm   1.6 km/h 92% 0 mm 18 W/m2
07:49 14.8 °C 13.6 °C 1013.4 hPa Calm   1.6 km/h 92% 0 mm 19 W/m2
07:54 14.9 °C 13.6 °C 1013.4 hPa Calm   1.6 km/h 92% 0 mm 21 W/m2
07:59 14.9 °C 13.7 °C 1013.1 hPa Calm   1.6 km/h 92% 0 mm 21 W/m2
08:04 15.1 °C 13.6 °C 1013.1 hPa Calm     91% 0 mm 23 W/m2
08:09 15.1 °C 13.7 °C 1013.4 hPa Calm     91% 0 mm 25 W/m2
08:14 15.2 °C 13.8 °C 1013.4 hPa Calm     91% 0 mm 26 W/m2
08:19 15.3 °C 13.8 °C 1013.4 hPa Calm     90.9% 0 mm 30 W/m2
08:24 15.4 °C 13.8 °C 1013.4 hPa Calm     90% 0 mm 33 W/m2
08:29 15.6 °C 13.9 °C 1013.4 hPa Calm     89.9% 0 mm 40 W/m2
08:34 15.7 °C 13.9 °C 1013.4 hPa Calm     89% 0 mm 46 W/m2
08:39 15.8 °C 13.9 °C 1013.4 hPa Calm     88.4% 0 mm 51 W/m2
08:44 16 °C 13.9 °C 1013.4 hPa Calm     87.6% 0 mm 60 W/m2
08:49 16.2 °C 14 °C 1013.4 hPa Calm     87% 0 mm 63 W/m2
08:54 16.3 °C 14 °C 1013.4 hPa NW 0.2 km/h 3.2 km/h 86% 0 mm 158 W/m2
08:59 16.7 °C 14.2 °C 1013.4 hPa NW 1.3 km/h 9.7 km/h 85.4% 0 mm 411 W/m2
09:04 17.1 °C 14.3 °C 1013.4 hPa Calm   9.7 km/h 83.4% 0 mm 439 W/m2
09:09 17.6 °C 14.6 °C 1013.4 hPa NW 1.1 km/h 6.4 km/h 82.6% 0 mm 480 W/m2
09:14 18.2 °C 14.8 °C 1013.8 hPa North 1.9 km/h 9.7 km/h 80.4% 0 mm 524 W/m2
09:19 18.9 °C 14.9 °C 1013.8 hPa NW 2.9 km/h 14.5 km/h 77.4% 0 mm 594 W/m2
09:24 19.6 °C 15 °C 1013.4 hPa NW 0.8 km/h 14.5 km/h 75% 0 mm 633 W/m2
09:29 20.2 °C 15.4 °C 1013.4 hPa WNW 2.1 km/h 14.5 km/h 74.2% 0 mm 679 W/m2
09:34 20.7 °C 15.6 °C 1013.4 hPa WNW 0.5 km/h 14.5 km/h 72.7% 0 mm 694 W/m2
09:39 21.2 °C 15.8 °C 1013.8 hPa WNW 1.3 km/h 8 km/h 71.2% 0 mm 401 W/m2
09:44 21.3 °C 15.3 °C 1013.8 hPa WNW 0.6 km/h 8 km/h 68.6% 0 mm 139 W/m2
09:49 21.1 °C 14.9 °C 1013.8 hPa Calm   8 km/h 68% 0 mm 211 W/m2
09:54 20.8 °C 15.2 °C 1013.8 hPa Calm   8 km/h 70.2% 0 mm 223 W/m2
09:59 20.5 °C 14.8 °C 1013.4 hPa Calm   8 km/h 70% 0 mm 297 W/m2
10:04 20.3 °C 14.7 °C 1013.4 hPa Calm   8 km/h 70.4% 0 mm 545 W/m2
10:09 20.3 °C 14.6 °C 1013.4 hPa Calm   4.8 km/h 69.8% 0 mm 338 W/m2
10:14 20.2 °C 14.5 °C 1013.4 hPa North 1 km/h 6.4 km/h 69.7% 0 mm 220 W/m2
10:19 20.2 °C 14.6 °C 1013.4 hPa NW 0.8 km/h 6.4 km/h 70.4% 0 mm 213 W/m2
10:24 20.1 °C 14.8 °C 1013.4 hPa WNW 1.4 km/h 9.7 km/h 71.4% 0 mm 225 W/m2
10:29 19.9 °C 14.8 °C 1013.4 hPa WNW 1.9 km/h 9.7 km/h 72.1% 0 mm 272 W/m2
10:34 19.8 °C 14.7 °C 1013.4 hPa WNW 0.2 km/h 9.7 km/h 72.3% 0 mm 294 W/m2
10:39 19.8 °C 14.8 °C 1013.4 hPa WNW 0.6 km/h 6.4 km/h 73.1% 0 mm 287 W/m2
10:44 19.8 °C 14.8 °C 1013.4 hPa WNW 0.2 km/h 6.4 km/h 73.1% 0 mm 248 W/m2
10:49 19.8 °C 15.1 °C 1013.4 hPa WNW 1.3 km/h 11.3 km/h 74% 0 mm 246 W/m2
10:54 19.8 °C 14.9 °C 1013.4 hPa West 1.8 km/h 14.5 km/h 73.3% 0 mm 229 W/m2
13:19 22.2 °C 16 °C 1011.1 hPa Calm   3.2 km/h 67.9% 0 mm 84 W/m2
13:24 22.2 °C 15.8 °C 1011.1 hPa North 0.2 km/h 3.2 km/h 67.2% 0 mm 91 W/m2
13:29 22.3 °C 16.1 °C 1011.1 hPa Calm   3.2 km/h 68% 0 mm 81 W/m2
13:34 22.4 °C 16.1 °C 1011.1 hPa NNW 0.3 km/h 3.2 km/h 67.4% 0 mm 98 W/m2
13:39 22.5 °C 16.2 °C 1010.7 hPa Calm   3.2 km/h 67.7% 0 mm 49 W/m2
13:44 22.6 °C 15.9 °C 1010.7 hPa NNW 0.2 km/h 3.2 km/h 66.3% 0 mm 60 W/m2
13:49 22.5 °C 15.8 °C 1010.7 hPa Calm   3.2 km/h 65.8% 0 mm 72 W/m2
13:54 22.6 °C 16.3 °C 1010.7 hPa Calm   3.2 km/h 67.7% 0 mm 113 W/m2
13:59 22.7 °C 16.2 °C 1010.7 hPa Calm   3.2 km/h 67% 0 mm 114 W/m2
14:04 22.8 °C 16.6 °C 1010.7 hPa NW 0.3 km/h 6.4 km/h 68.2% 0 mm 125 W/m2
14:09 22.9 °C 16.4 °C 1010.7 hPa WNW 0.3 km/h 6.4 km/h 66.7% 0 mm 67 W/m2
14:14 23 °C 16.4 °C 1010.4 hPa WNW 0.8 km/h 6.4 km/h 66.6% 0 mm 62 W/m2
14:19 23.1 °C 16.4 °C 1010.4 hPa WNW 0.3 km/h 6.4 km/h 66.2% 0 mm 60 W/m2
14:24 23.2 °C 16.7 °C 1010.4 hPa Calm   6.4 km/h 66.9% 0 mm 56 W/m2
14:29 23.3 °C 16.6 °C 1010.4 hPa Calm   6.4 km/h 65.7% 0 mm 53 W/m2
14:34 23.4 °C 16.7 °C 1010.4 hPa WNW 0.2 km/h 6.4 km/h 66.1% 0 mm 54 W/m2
14:39 23.5 °C 16.6 °C 1010.4 hPa West 0.3 km/h 4.8 km/h 65% 0 mm 149 W/m2
14:44 23.6 °C 16.6 °C 1010.4 hPa West 0.5 km/h 4.8 km/h 64.8% 0 mm 199 W/m2
14:45 23.7 °C 16.5 °C 1010.4 hPa Calm   4.8 km/h 64% 0 mm 163 W/m2
15:34 24.3 °C 17.3 °C 1009.4 hPa SSW 0.2 km/h 3.2 km/h 64.6% 0 mm 461 W/m2
15:39 24.5 °C 17.3 °C 1009.7 hPa SSW 0.2 km/h 4.8 km/h 64.4% 0 mm 425 W/m2
15:44 24.4 °C 16.9 °C 1009.4 hPa Calm   4.8 km/h 62.8% 0 mm 155 W/m2
15:49 24.4 °C 17.2 °C 1009.4 hPa SSW 0.2 km/h 4.8 km/h 64.1% 0 mm 606 W/m2
15:54 24.4 °C 17.6 °C 1009.4 hPa SW 0.3 km/h 9.7 km/h 65.4% 0 mm 589 W/m2
15:59 24.6 °C 17.6 °C 1009.4 hPa WSW 0.6 km/h 9.7 km/h 64.8% 0 mm 54 W/m2
16:00 24.7 °C 17.4 °C 1009.4 hPa Calm   9.7 km/h 64% 0 mm 53 W/m2
17:30 23.3 °C 17.8 °C 1009.4 hPa Calm   3.2 km/h 71% 0 mm 35 W/m2
18:00 22.5 °C 17.4 °C 1009 hPa Calm   3.2 km/h 73% 0 mm 33 W/m2
19:30 20.8 °C 16.8 °C 1008.7 hPa Calm     78% 0 mm 0 W/m2
Hartford County Weather
Compliments of Weather Underground - 2 mb